sensor_id;sensor_type;location;lat;lon;timestamp;pressure;altitude;pressure_sealevel;temperature;humidity
63009;BME280;49099;28.428;-16.488;2023-09-19T00:00:42;98936.38;;;23.93;52.85
63009;BME280;49099;28.428;-16.488;2023-09-19T00:03:30;98926.53;;;23.88;52.92
63009;BME280;49099;28.428;-16.488;2023-09-19T00:06:18;98925.53;;;23.93;53.11
63009;BME280;49099;28.428;-16.488;2023-09-19T00:09:07;98917.50;;;23.96;52.77
63009;BME280;49099;28.428;-16.488;2023-09-19T00:11:58;98908.25;;;23.97;51.96
63009;BME280;49099;28.428;-16.488;2023-09-19T00:14:46;98918.97;;;23.94;51.65
63009;BME280;49099;28.428;-16.488;2023-09-19T00:17:35;98919.66;;;23.90;51.67
63009;BME280;49099;28.428;-16.488;2023-09-19T00:20:24;98919.44;;;23.83;52.46
63009;BME280;49099;28.428;-16.488;2023-09-19T00:23:12;98923.03;;;23.87;52.93
63009;BME280;49099;28.428;-16.488;2023-09-19T00:26:00;98921.13;;;23.88;53.96
63009;BME280;49099;28.428;-16.488;2023-09-19T00:28:48;98904.44;;;23.86;54.06
63009;BME280;49099;28.428;-16.488;2023-09-19T00:31:35;98910.97;;;23.85;54.60
63009;BME280;49099;28.428;-16.488;2023-09-19T00:34:25;98913.34;;;23.86;54.37
63009;BME280;49099;28.428;-16.488;2023-09-19T00:37:12;98903.19;;;23.83;54.91
63009;BME280;49099;28.428;-16.488;2023-09-19T00:40:00;98910.97;;;23.85;54.53
63009;BME280;49099;28.428;-16.488;2023-09-19T00:42:48;98912.56;;;23.86;54.84
63009;BME280;49099;28.428;-16.488;2023-09-19T00:45:37;98900.16;;;23.85;54.85
63009;BME280;49099;28.428;-16.488;2023-09-19T00:48:26;98910.06;;;23.81;56.15
63009;BME280;49099;28.428;-16.488;2023-09-19T00:51:16;98898.44;;;23.80;56.35
63009;BME280;49099;28.428;-16.488;2023-09-19T00:54:08;98889.44;;;23.76;57.90
63009;BME280;49099;28.428;-16.488;2023-09-19T00:56:56;98896.00;;;23.75;56.59
63009;BME280;49099;28.428;-16.488;2023-09-19T00:59:43;98888.22;;;23.74;58.01
63009;BME280;49099;28.428;-16.488;2023-09-19T01:02:32;98885.72;;;23.69;57.64
63009;BME280;49099;28.428;-16.488;2023-09-19T01:05:20;98886.16;;;23.58;58.09
63009;BME280;49099;28.428;-16.488;2023-09-19T01:08:07;98879.16;;;23.57;57.75
63009;BME280;49099;28.428;-16.488;2023-09-19T01:11:21;98877.03;;;23.63;57.28
63009;BME280;49099;28.428;-16.488;2023-09-19T01:17:14;98864.06;;;23.69;56.70
63009;BME280;49099;28.428;-16.488;2023-09-19T01:20:15;98864.72;;;23.66;56.67
63009;BME280;49099;28.428;-16.488;2023-09-19T01:29:38;98851.28;;;23.57;55.12
63009;BME280;49099;28.428;-16.488;2023-09-19T01:32:26;98851.63;;;23.55;54.18
63009;BME280;49099;28.428;-16.488;2023-09-19T01:35:14;98837.22;;;23.51;53.54
63009;BME280;49099;28.428;-16.488;2023-09-19T01:38:02;98837.66;;;23.53;54.56
63009;BME280;49099;28.428;-16.488;2023-09-19T01:41:11;98831.44;;;23.53;53.24
63009;BME280;49099;28.428;-16.488;2023-09-19T01:43:59;98833.81;;;23.42;52.21
63009;BME280;49099;28.428;-16.488;2023-09-19T01:46:51;98830.31;;;23.42;50.53
63009;BME280;49099;28.428;-16.488;2023-09-19T01:49:56;98817.56;;;23.42;52.78
63009;BME280;49099;28.428;-16.488;2023-09-19T01:52:50;98819.06;;;23.40;52.02
63009;BME280;49099;28.428;-16.488;2023-09-19T01:55:44;98826.16;;;23.44;52.25
63009;BME280;49099;28.428;-16.488;2023-09-19T01:58:48;98809.78;;;23.53;51.88
63009;BME280;49099;28.428;-16.488;2023-09-19T02:01:39;98809.09;;;23.56;48.89
63009;BME280;49099;28.428;-16.488;2023-09-19T02:04:27;98804.03;;;23.54;50.21
63009;BME280;49099;28.428;-16.488;2023-09-19T02:07:16;98792.41;;;23.54;50.26
63009;BME280;49099;28.428;-16.488;2023-09-19T02:10:05;98795.81;;;23.51;48.52
63009;BME280;49099;28.428;-16.488;2023-09-19T02:12:53;98790.72;;;23.49;49.47
63009;BME280;49099;28.428;-16.488;2023-09-19T02:15:40;98791.19;;;23.51;49.71
63009;BME280;49099;28.428;-16.488;2023-09-19T02:18:28;98786.22;;;23.53;48.88
63009;BME280;49099;28.428;-16.488;2023-09-19T02:21:16;98778.78;;;23.50;49.32
63009;BME280;49099;28.428;-16.488;2023-09-19T02:24:04;98772.47;;;23.46;48.33
63009;BME280;49099;28.428;-16.488;2023-09-19T02:26:52;98765.34;;;23.42;49.37
63009;BME280;49099;28.428;-16.488;2023-09-19T02:29:42;98772.59;;;23.38;47.74
63009;BME280;49099;28.428;-16.488;2023-09-19T02:32:30;98763.69;;;23.37;50.03
63009;BME280;49099;28.428;-16.488;2023-09-19T02:35:23;98764.13;;;23.39;47.88
63009;BME280;49099;28.428;-16.488;2023-09-19T02:38:13;98759.41;;;23.36;49.38
63009;BME280;49099;28.428;-16.488;2023-09-19T02:41:01;98766.84;;;23.39;48.93
63009;BME280;49099;28.428;-16.488;2023-09-19T02:43:50;98754.88;;;23.40;49.98
63009;BME280;49099;28.428;-16.488;2023-09-19T02:46:38;98758.50;;;23.44;48.27
63009;BME280;49099;28.428;-16.488;2023-09-19T02:49:25;98759.63;;;23.43;48.46
63009;BME280;49099;28.428;-16.488;2023-09-19T02:52:13;98759.84;;;23.38;49.57
63009;BME280;49099;28.428;-16.488;2023-09-19T02:55:02;98756.34;;;23.38;49.77
63009;BME280;49099;28.428;-16.488;2023-09-19T02:57:53;98762.22;;;23.40;48.12
63009;BME280;49099;28.428;-16.488;2023-09-19T03:00:43;98761.66;;;23.34;49.73
63009;BME280;49099;28.428;-16.488;2023-09-19T03:03:35;98767.31;;;23.29;50.79
63009;BME280;49099;28.428;-16.488;2023-09-19T03:06:25;98762.34;;;23.31;51.63
63009;BME280;49099;28.428;-16.488;2023-09-19T03:09:12;98762.34;;;23.31;50.98
63009;BME280;49099;28.428;-16.488;2023-09-19T03:12:00;98761.78;;;23.38;50.80
63009;BME280;49099;28.428;-16.488;2023-09-19T03:14:48;98765.34;;;23.42;51.13
63009;BME280;49099;28.428;-16.488;2023-09-19T03:17:37;98768.19;;;23.45;51.17
63009;BME280;49099;28.428;-16.488;2023-09-19T03:20:25;98750.56;;;23.51;51.33
63009;BME280;49099;28.428;-16.488;2023-09-19T03:23:14;98760.94;;;23.49;51.68
63009;BME280;49099;28.428;-16.488;2023-09-19T03:26:02;98756.56;;;23.45;52.08
63009;BME280;49099;28.428;-16.488;2023-09-19T03:28:53;98763.56;;;23.46;52.31
63009;BME280;49099;28.428;-16.488;2023-09-19T03:31:40;98768.28;;;23.49;52.38
63009;BME280;49099;28.428;-16.488;2023-09-19T03:34:28;98762.97;;;23.52;52.43
63009;BME280;49099;28.428;-16.488;2023-09-19T03:37:16;98767.69;;;23.55;52.58
63009;BME280;49099;28.428;-16.488;2023-09-19T03:40:05;98760.38;;;23.56;52.25
63009;BME280;49099;28.428;-16.488;2023-09-19T03:42:52;98759.13;;;23.53;52.65
63009;BME280;49099;28.428;-16.488;2023-09-19T03:45:40;98765.44;;;23.57;51.96
63009;BME280;49099;28.428;-16.488;2023-09-19T03:48:28;98757.56;;;23.52;53.60
63009;BME280;49099;28.428;-16.488;2023-09-19T03:51:16;98762.19;;;23.52;53.69
63009;BME280;49099;28.428;-16.488;2023-09-19T03:54:04;98764.56;;;23.53;55.05
63009;BME280;49099;28.428;-16.488;2023-09-19T03:56:51;98756.66;;;23.48;55.54
63009;BME280;49099;28.428;-16.488;2023-09-19T03:59:39;98761.28;;;23.48;56.02
63009;BME280;49099;28.428;-16.488;2023-09-19T04:02:26;98756.56;;;23.45;56.21
63009;BME280;49099;28.428;-16.488;2023-09-19T04:05:20;98751.72;;;23.38;55.96
63009;BME280;49099;28.428;-16.488;2023-09-19T04:08:07;98750.94;;;23.38;56.83
63009;BME280;49099;28.428;-16.488;2023-09-19T04:10:55;98750.50;;;23.35;56.98
63009;BME280;49099;28.428;-16.488;2023-09-19T04:13:44;98745.41;;;23.34;56.79
63009;BME280;49099;28.428;-16.488;2023-09-19T04:16:31;98746.66;;;23.37;56.42
63009;BME280;49099;28.428;-16.488;2023-09-19T04:19:19;98735.50;;;23.38;56.50
63009;BME280;49099;28.428;-16.488;2023-09-19T04:22:08;98736.63;;;23.37;56.84
63009;BME280;49099;28.428;-16.488;2023-09-19T04:24:56;98740.78;;;23.34;56.72
63009;BME280;49099;28.428;-16.488;2023-09-19T04:27:44;98735.72;;;23.33;56.43
63009;BME280;49099;28.428;-16.488;2023-09-19T04:30:32;98736.63;;;23.25;56.78
63009;BME280;49099;28.428;-16.488;2023-09-19T04:33:19;98735.50;;;23.26;56.90
63009;BME280;49099;28.428;-16.488;2023-09-19T04:36:07;98736.63;;;23.25;57.16
63009;BME280;49099;28.428;-16.488;2023-09-19T04:39:14;98728.53;;;23.25;56.79
63009;BME280;49099;28.428;-16.488;2023-09-19T04:42:02;98724.25;;;23.24;56.21
63009;BME280;49099;28.428;-16.488;2023-09-19T04:44:50;98722.44;;;23.16;56.65
63009;BME280;49099;28.428;-16.488;2023-09-19T04:47:41;98723.59;;;23.02;57.13
63009;BME280;49099;28.428;-16.488;2023-09-19T04:50:31;98730.78;;;23.11;56.93
63009;BME280;49099;28.428;-16.488;2023-09-19T04:53:18;98730.34;;;23.21;56.21
63009;BME280;49099;28.428;-16.488;2023-09-19T04:56:07;98735.84;;;23.24;55.91
63009;BME280;49099;28.428;-16.488;2023-09-19T04:58:55;98734.63;;;23.22;55.85
63009;BME280;49099;28.428;-16.488;2023-09-19T05:01:43;98730.91;;;23.14;56.03
63009;BME280;49099;28.428;-16.488;2023-09-19T05:04:31;98736.78;;;23.16;56.59
63009;BME280;49099;28.428;-16.488;2023-09-19T05:07:19;98736.09;;;23.19;55.93
63009;BME280;49099;28.428;-16.488;2023-09-19T05:10:09;98740.25;;;23.17;55.64
63009;BME280;49099;28.428;-16.488;2023-09-19T05:12:57;98738.81;;;23.07;56.16
63009;BME280;49099;28.428;-16.488;2023-09-19T05:15:45;98733.97;;;23.00;55.66
63009;BME280;49099;28.428;-16.488;2023-09-19T05:18:32;98738.94;;;22.98;56.45
63009;BME280;49099;28.428;-16.488;2023-09-19T05:21:20;98735.53;;;23.01;56.22
63009;BME280;49099;28.428;-16.488;2023-09-19T05:24:08;98735.31;;;23.06;55.61
63009;BME280;49099;28.428;-16.488;2023-09-19T05:26:57;98736.81;;;23.04;55.96
63009;BME280;49099;28.428;-16.488;2023-09-19T05:29:45;98738.91;;;23.11;55.64
63009;BME280;49099;28.428;-16.488;2023-09-19T05:32:32;98739.16;;;23.05;56.11
63009;BME280;49099;28.428;-16.488;2023-09-19T05:35:20;98739.94;;;23.06;56.04
63009;BME280;49099;28.428;-16.488;2023-09-19T05:38:09;98748.50;;;23.08;56.13
63009;BME280;49099;28.428;-16.488;2023-09-19T05:40:56;98756.75;;;23.12;55.56
63009;BME280;49099;28.428;-16.488;2023-09-19T05:43:44;98760.34;;;23.16;54.96
63009;BME280;49099;28.428;-16.488;2023-09-19T05:46:31;98771.59;;;23.18;55.65
63009;BME280;49099;28.428;-16.488;2023-09-19T05:49:19;98763.81;;;23.16;55.03
63009;BME280;49099;28.428;-16.488;2023-09-19T05:52:09;98761.69;;;23.22;55.07
63009;BME280;49099;28.428;-16.488;2023-09-19T05:54:56;98761.25;;;23.20;54.99
63009;BME280;49099;28.428;-16.488;2023-09-19T05:57:49;98764.25;;;23.18;53.49
63009;BME280;49099;28.428;-16.488;2023-09-19T06:00:38;98759.63;;;23.19;54.50
63009;BME280;49099;28.428;-16.488;2023-09-19T06:03:26;98764.38;;;23.22;54.71
63009;BME280;49099;28.428;-16.488;2023-09-19T06:06:14;98755.84;;;23.20;54.56
63009;BME280;49099;28.428;-16.488;2023-09-19T06:09:02;98768.31;;;23.24;53.95
63009;BME280;49099;28.428;-16.488;2023-09-19T06:11:52;98759.53;;;23.27;53.98
63009;BME280;49099;28.428;-16.488;2023-09-19T06:14:40;98766.19;;;23.30;53.98
63009;BME280;49099;28.428;-16.488;2023-09-19T06:17:28;98764.25;;;23.30;53.90
63009;BME280;49099;28.428;-16.488;2023-09-19T06:20:16;98767.66;;;23.27;53.24
63009;BME280;49099;28.428;-16.488;2023-09-19T06:23:04;98779.94;;;23.25;53.31
63009;BME280;49099;28.428;-16.488;2023-09-19T06:25:54;98771.47;;;23.26;53.18
63009;BME280;49099;28.428;-16.488;2023-09-19T06:28:42;98770.59;;;23.22;52.11
63009;BME280;49099;28.428;-16.488;2023-09-19T06:31:31;98781.28;;;23.19;51.80
63009;BME280;49099;28.428;-16.488;2023-09-19T06:34:19;98786.69;;;23.19;52.72
63009;BME280;49099;28.428;-16.488;2023-09-19T06:37:06;98780.50;;;23.18;52.86
63009;BME280;49099;28.428;-16.488;2023-09-19T06:39:54;98784.00;;;23.19;51.76
63009;BME280;49099;28.428;-16.488;2023-09-19T06:42:46;98782.91;;;23.20;53.11
63009;BME280;49099;28.428;-16.488;2023-09-19T06:45:35;98789.97;;;23.24;51.71
63009;BME280;49099;28.428;-16.488;2023-09-19T06:48:23;98785.81;;;23.27;50.81
63009;BME280;49099;28.428;-16.488;2023-09-19T06:51:12;98786.25;;;23.29;53.05
63009;BME280;49099;28.428;-16.488;2023-09-19T06:54:02;98782.41;;;23.30;50.90
63009;BME280;49099;28.428;-16.488;2023-09-19T06:56:52;98788.63;;;23.30;51.69
63009;BME280;49099;28.428;-16.488;2023-09-19T06:59:40;98799.78;;;23.29;51.90
63009;BME280;49099;28.428;-16.488;2023-09-19T07:02:27;98797.31;;;23.24;52.37
63009;BME280;49099;28.428;-16.488;2023-09-19T07:05:15;98803.84;;;23.23;52.19
63009;BME280;49099;28.428;-16.488;2023-09-19T07:08:05;98806.56;;;23.23;52.35
63009;BME280;49099;28.428;-16.488;2023-09-19T07:10:58;98813.97;;;23.26;51.48
63009;BME280;49099;28.428;-16.488;2023-09-19T07:13:45;98814.56;;;23.31;52.53
63009;BME280;49099;28.428;-16.488;2023-09-19T07:16:34;98825.59;;;23.39;51.70
63009;BME280;49099;28.428;-16.488;2023-09-19T07:19:23;98819.19;;;23.43;51.19
63009;BME280;49099;28.428;-16.488;2023-09-19T07:22:10;98825.38;;;23.44;51.93
63009;BME280;49099;28.428;-16.488;2023-09-19T07:24:58;98828.31;;;23.51;52.16
63009;BME280;49099;28.428;-16.488;2023-09-19T07:27:46;98826.81;;;23.53;50.94
63009;BME280;49099;28.428;-16.488;2023-09-19T07:30:36;98832.69;;;23.55;51.73
63009;BME280;49099;28.428;-16.488;2023-09-19T07:33:24;98835.72;;;23.54;51.12
63009;BME280;49099;28.428;-16.488;2023-09-19T07:36:14;98830.88;;;23.47;50.70
63009;BME280;49099;28.428;-16.488;2023-09-19T07:39:02;98826.59;;;23.46;52.07
63009;BME280;49099;28.428;-16.488;2023-09-19T07:42:09;98825.81;;;23.46;51.60
63009;BME280;49099;28.428;-16.488;2023-09-19T07:44:58;98825.38;;;23.44;51.79
63009;BME280;49099;28.428;-16.488;2023-09-19T07:47:48;98825.69;;;23.42;52.94
63009;BME280;49099;28.428;-16.488;2023-09-19T07:50:36;98824.59;;;23.43;52.88
63009;BME280;49099;28.428;-16.488;2023-09-19T07:53:25;98826.94;;;23.45;52.69
63009;BME280;49099;28.428;-16.488;2023-09-19T07:56:13;98819.41;;;23.38;52.87
63009;BME280;49099;28.428;-16.488;2023-09-19T07:59:00;98815.00;;;23.33;53.29
63009;BME280;49099;28.428;-16.488;2023-09-19T08:01:48;98821.19;;;23.34;53.72
63009;BME280;49099;28.428;-16.488;2023-09-19T08:04:36;98811.16;;;23.34;53.70
63009;BME280;49099;28.428;-16.488;2023-09-19T08:07:23;98822.66;;;23.44;53.57
63009;BME280;49099;28.428;-16.488;2023-09-19T08:10:11;98816.22;;;23.48;53.21
63009;BME280;49099;28.428;-16.488;2023-09-19T08:13:00;98824.81;;;23.50;52.43
63009;BME280;49099;28.428;-16.488;2023-09-19T08:15:50;98826.81;;;23.53;53.15
63009;BME280;49099;28.428;-16.488;2023-09-19T08:18:38;98818.94;;;23.60;53.27
63009;BME280;49099;28.428;-16.488;2023-09-19T08:21:27;98819.81;;;23.65;53.30
63009;BME280;49099;28.428;-16.488;2023-09-19T08:24:16;98816.88;;;23.70;52.82
63009;BME280;49099;28.428;-16.488;2023-09-19T08:27:05;98823.00;;;23.67;52.65
63009;BME280;49099;28.428;-16.488;2023-09-19T08:29:56;98834.50;;;23.63;52.88
63009;BME280;49099;28.428;-16.488;2023-09-19T08:32:44;98841.25;;;23.57;54.76
63009;BME280;49099;28.428;-16.488;2023-09-19T08:35:33;98842.41;;;23.44;56.53
63009;BME280;49099;28.428;-16.488;2023-09-19T08:38:22;98835.41;;;23.43;56.82
63009;BME280;49099;28.428;-16.488;2023-09-19T08:41:09;98841.28;;;23.45;59.12
63009;BME280;49099;28.428;-16.488;2023-09-19T08:44:00;98846.22;;;23.55;56.27
63009;BME280;49099;28.428;-16.488;2023-09-19T08:46:55;98841.63;;;23.68;56.92
63009;BME280;49099;28.428;-16.488;2023-09-19T08:50:19;98850.28;;;23.74;57.97
63009;BME280;49099;28.428;-16.488;2023-09-19T08:53:11;98842.63;;;23.76;57.47
63009;BME280;49099;28.428;-16.488;2023-09-19T08:56:03;98849.25;;;23.78;57.75
63009;BME280;49099;28.428;-16.488;2023-09-19T08:58:54;98852.59;;;23.87;58.39
63009;BME280;49099;28.428;-16.488;2023-09-19T09:01:44;98853.88;;;23.90;58.25
63009;BME280;49099;28.428;-16.488;2023-09-19T09:04:34;98852.25;;;23.89;58.44
63009;BME280;49099;28.428;-16.488;2023-09-19T09:07:22;98862.63;;;23.99;57.10
63009;BME280;49099;28.428;-16.488;2023-09-19T09:10:10;98858.78;;;24.00;57.76
63009;BME280;49099;28.428;-16.488;2023-09-19T09:12:58;98856.44;;;23.99;57.68
63009;BME280;49099;28.428;-16.488;2023-09-19T09:15:46;98862.19;;;23.97;57.63
63009;BME280;49099;28.428;-16.488;2023-09-19T09:18:34;98860.56;;;24.08;57.56
63009;BME280;49099;28.428;-16.488;2023-09-19T09:21:22;98864.84;;;24.09;57.33
63009;BME280;49099;28.428;-16.488;2023-09-19T09:24:28;98849.50;;;24.13;56.81
63009;BME280;49099;28.428;-16.488;2023-09-19T09:27:21;98856.53;;;24.02;58.33
63009;BME280;49099;28.428;-16.488;2023-09-19T09:30:36;98855.66;;;23.86;58.25
63009;BME280;49099;28.428;-16.488;2023-09-19T09:33:25;98857.38;;;23.78;58.49
63009;BME280;49099;28.428;-16.488;2023-09-19T09:36:13;98857.28;;;23.75;58.43
63009;BME280;49099;28.428;-16.488;2023-09-19T09:39:02;98863.38;;;23.72;58.88
63009;BME280;49099;28.428;-16.488;2023-09-19T09:42:03;98867.19;;;23.83;58.92
63009;BME280;49099;28.428;-16.488;2023-09-19T09:45:14;98867.34;;;23.74;58.89
63009;BME280;49099;28.428;-16.488;2023-09-19T09:48:03;98870.97;;;23.66;59.15
63009;BME280;49099;28.428;-16.488;2023-09-19T09:50:57;98862.38;;;23.64;58.79
63009;BME280;49099;28.428;-16.488;2023-09-19T09:53:50;98868.56;;;23.65;58.85
63009;BME280;49099;28.428;-16.488;2023-09-19T09:56:59;98871.75;;;23.67;59.76
63009;BME280;49099;28.428;-16.488;2023-09-19T10:02:35;98872.16;;;23.56;59.29
63009;BME280;49099;28.428;-16.488;2023-09-19T10:05:32;98871.06;;;23.70;58.79
63009;BME280;49099;28.428;-16.488;2023-09-19T10:08:27;98869.44;;;23.81;58.31
63009;BME280;49099;28.428;-16.488;2023-09-19T10:11:18;98873.06;;;23.85;57.73
63009;BME280;49099;28.428;-16.488;2023-09-19T10:14:07;98878.47;;;23.85;57.67
63009;BME280;49099;28.428;-16.488;2023-09-19T10:16:58;98876.75;;;23.93;56.46
63009;BME280;49099;28.428;-16.488;2023-09-19T10:19:56;98882.75;;;23.98;56.33
63009;BME280;49099;28.428;-16.488;2023-09-19T10:22:54;98879.56;;;23.96;55.90
63009;BME280;49099;28.428;-16.488;2023-09-19T10:25:45;98883.75;;;24.06;55.01
63009;BME280;49099;28.428;-16.488;2023-09-19T10:28:35;98884.47;;;24.18;55.38
63009;BME280;49099;28.428;-16.488;2023-09-19T10:31:26;98880.50;;;24.28;54.49
63009;BME280;49099;28.428;-16.488;2023-09-19T10:34:16;98883.66;;;24.30;54.47
63009;BME280;49099;28.428;-16.488;2023-09-19T10:37:05;98879.25;;;24.38;55.45
63009;BME280;49099;28.428;-16.488;2023-09-19T10:39:54;98887.91;;;24.43;55.62
63009;BME280;49099;28.428;-16.488;2023-09-19T10:42:46;98882.47;;;24.43;56.06
63009;BME280;49099;28.428;-16.488;2023-09-19T10:45:36;98887.13;;;24.43;56.75
63009;BME280;49099;28.428;-16.488;2023-09-19T10:48:26;98876.97;;;24.40;57.17
63009;BME280;49099;28.428;-16.488;2023-09-19T10:51:22;98880.50;;;24.28;58.49
63009;BME280;49099;28.428;-16.488;2023-09-19T10:54:13;98879.25;;;24.38;57.95
63009;BME280;49099;28.428;-16.488;2023-09-19T10:57:03;98880.91;;;24.42;56.88
63009;BME280;49099;28.428;-16.488;2023-09-19T11:00:05;98883.97;;;24.41;58.47
63009;BME280;49099;28.428;-16.488;2023-09-19T11:06:07;98885.94;;;24.56;57.21
63009;BME280;49099;28.428;-16.488;2023-09-19T11:09:04;98887.84;;;24.56;56.08
63009;BME280;49099;28.428;-16.488;2023-09-19T11:12:09;98882.88;;;24.58;57.06
63009;BME280;49099;28.428;-16.488;2023-09-19T11:14:59;98889.19;;;24.62;56.83
63009;BME280;49099;28.428;-16.488;2023-09-19T11:17:47;98879.47;;;24.61;56.51
63009;BME280;49099;28.428;-16.488;2023-09-19T11:20:35;98871.22;;;24.57;57.50
63009;BME280;49099;28.428;-16.488;2023-09-19T11:23:27;98865.13;;;24.60;57.23
63009;BME280;49099;28.428;-16.488;2023-09-19T11:26:43;98866.59;;;24.58;57.20
63009;BME280;49099;28.428;-16.488;2023-09-19T11:29:35;98872.13;;;24.61;57.66
63009;BME280;49099;28.428;-16.488;2023-09-19T11:36:15;98865.22;;;24.64;59.65
63009;BME280;49099;28.428;-16.488;2023-09-19T11:39:03;98861.97;;;24.58;60.87
63009;BME280;49099;28.428;-16.488;2023-09-19T11:41:56;98854.97;;;24.57;58.52
63009;BME280;49099;28.428;-16.488;2023-09-19T11:44:43;98853.69;;;24.67;57.36
63009;BME280;49099;28.428;-16.488;2023-09-19T11:47:32;98849.84;;;24.68;58.76
63009;BME280;49099;28.428;-16.488;2023-09-19T11:50:23;98849.84;;;24.68;58.30
63009;BME280;49099;28.428;-16.488;2023-09-19T11:53:11;98842.84;;;24.67;57.62
63009;BME280;49099;28.428;-16.488;2023-09-19T11:55:59;98839.41;;;24.70;57.38
63009;BME280;49099;28.428;-16.488;2023-09-19T11:58:53;98848.53;;;24.78;56.29
63009;BME280;49099;28.428;-16.488;2023-09-19T12:01:43;98840.28;;;24.90;56.91
63009;BME280;49099;28.428;-16.488;2023-09-19T12:04:39;98829.44;;;24.90;58.21
63009;BME280;49099;28.428;-16.488;2023-09-19T12:07:28;98833.28;;;24.89;57.64
63009;BME280;49099;28.428;-16.488;2023-09-19T12:10:17;98829.44;;;24.90;57.25
63009;BME280;49099;28.428;-16.488;2023-09-19T12:13:08;98828.94;;;25.00;57.26
63009;BME280;49099;28.428;-16.488;2023-09-19T12:15:58;98829.44;;;25.06;58.18
63009;BME280;49099;28.428;-16.488;2023-09-19T12:18:48;98820.53;;;25.05;57.86
63009;BME280;49099;28.428;-16.488;2023-09-19T12:21:37;98810.28;;;25.14;57.08
63009;BME280;49099;28.428;-16.488;2023-09-19T12:24:26;98808.44;;;25.18;54.96
63009;BME280;49099;28.428;-16.488;2023-09-19T12:27:17;98798.28;;;25.15;55.74
63009;BME280;49099;28.428;-16.488;2023-09-19T12:30:05;98803.88;;;25.22;55.55
63009;BME280;49099;28.428;-16.488;2023-09-19T12:33:18;98804.75;;;25.26;55.63
63009;BME280;49099;28.428;-16.488;2023-09-19T12:36:23;98801.84;;;25.35;55.11
63009;BME280;49099;28.428;-16.488;2023-09-19T12:39:23;98797.47;;;25.31;55.84
63009;BME280;49099;28.428;-16.488;2023-09-19T12:42:15;98796.03;;;25.37;56.45
63009;BME280;49099;28.428;-16.488;2023-09-19T12:45:07;98793.31;;;25.37;55.89
63009;BME280;49099;28.428;-16.488;2023-09-19T12:48:24;98784.75;;;25.35;56.19
63009;BME280;49099;28.428;-16.488;2023-09-19T12:51:20;98777.19;;;25.44;55.53
63009;BME280;49099;28.428;-16.488;2023-09-19T12:54:10;98786.78;;;25.57;55.40
63009;BME280;49099;28.428;-16.488;2023-09-19T12:56:58;98779.94;;;25.63;56.09
63009;BME280;49099;28.428;-16.488;2023-09-19T12:59:45;98785.09;;;25.68;56.15
63009;BME280;49099;28.428;-16.488;2023-09-19T13:02:33;98779.41;;;25.73;55.51
63009;BME280;49099;28.428;-16.488;2023-09-19T13:05:21;98780.28;;;25.77;55.50
63009;BME280;49099;28.428;-16.488;2023-09-19T13:08:20;98778.81;;;25.83;55.27
63009;BME280;49099;28.428;-16.488;2023-09-19T13:11:12;98771.13;;;25.86;53.65
63009;BME280;49099;28.428;-16.488;2023-09-19T13:14:28;98761.41;;;25.85;52.19
63009;BME280;49099;28.428;-16.488;2023-09-19T13:17:18;98773.97;;;25.73;52.83
63009;BME280;49099;28.428;-16.488;2023-09-19T13:20:24;98768.28;;;25.63;52.81
63009;BME280;49099;28.428;-16.488;2023-09-19T13:23:26;98768.13;;;25.71;52.34
63009;BME280;49099;28.428;-16.488;2023-09-19T13:26:14;98768.81;;;25.88;51.86
63009;BME280;49099;28.428;-16.488;2023-09-19T13:29:02;98757.22;;;25.91;52.23
63009;BME280;49099;28.428;-16.488;2023-09-19T13:31:51;98759.00;;;26.02;53.24
63009;BME280;49099;28.428;-16.488;2023-09-19T13:34:40;98758.22;;;26.02;52.91
63009;BME280;49099;28.428;-16.488;2023-09-19T13:37:30;98758.59;;;26.00;53.74
63009;BME280;49099;28.428;-16.488;2023-09-19T13:40:18;98762.78;;;25.98;54.25
63009;BME280;49099;28.428;-16.488;2023-09-19T13:43:05;98756.38;;;25.87;54.20
63009;BME280;49099;28.428;-16.488;2023-09-19T13:45:54;98743.94;;;25.86;53.96
63009;BME280;49099;28.428;-16.488;2023-09-19T13:48:42;98746.22;;;25.83;53.53
63009;BME280;49099;28.428;-16.488;2023-09-19T13:51:31;98746.81;;;25.73;53.14
63009;BME280;49099;28.428;-16.488;2023-09-19T13:54:18;98743.44;;;25.80;53.78
63009;BME280;49099;28.428;-16.488;2023-09-19T13:57:08;98745.66;;;25.74;54.18
63009;BME280;49099;28.428;-16.488;2023-09-19T13:59:57;98738.13;;;25.48;53.89
63009;BME280;49099;28.428;-16.488;2023-09-19T14:02:45;98737.75;;;25.50;54.32
63009;BME280;49099;28.428;-16.488;2023-09-19T14:05:33;98738.22;;;25.71;54.10
63009;BME280;49099;28.428;-16.488;2023-09-19T14:08:21;98739.63;;;25.65;54.84
63009;BME280;49099;28.428;-16.488;2023-09-19T14:11:10;98733.91;;;25.51;52.71
63009;BME280;49099;28.428;-16.488;2023-09-19T14:13:58;98733.50;;;25.68;52.58
63009;BME280;49099;28.428;-16.488;2023-09-19T14:16:47;98728.25;;;25.98;53.61
63009;BME280;49099;28.428;-16.488;2023-09-19T14:19:35;98733.59;;;26.14;53.39
63009;BME280;49099;28.428;-16.488;2023-09-19T14:22:24;98723.31;;;26.04;53.35
63009;BME280;49099;28.428;-16.488;2023-09-19T14:25:11;98725.41;;;25.91;54.19
63009;BME280;49099;28.428;-16.488;2023-09-19T14:27:59;98726.22;;;25.92;53.72
63009;BME280;49099;28.428;-16.488;2023-09-19T14:30:47;98717.75;;;25.97;54.64
63009;BME280;49099;28.428;-16.488;2023-09-19T14:33:37;98715.44;;;25.99;55.03
63009;BME280;49099;28.428;-16.488;2023-09-19T14:36:26;98722.63;;;26.07;54.89
63009;BME280;49099;28.428;-16.488;2023-09-19T14:39:13;98723.31;;;26.04;54.83
63009;BME280;49099;28.428;-16.488;2023-09-19T14:42:01;98717.47;;;26.02;55.21
63009;BME280;49099;28.428;-16.488;2023-09-19T14:44:48;98721.00;;;26.06;55.40
63009;BME280;49099;28.428;-16.488;2023-09-19T14:47:37;98720.22;;;26.05;56.00
63009;BME280;49099;28.428;-16.488;2023-09-19T14:50:25;98718.88;;;26.15;55.84
63009;BME280;49099;28.428;-16.488;2023-09-19T14:53:13;98717.47;;;26.25;55.23
63009;BME280;49099;28.428;-16.488;2023-09-19T14:56:02;98714.84;;;26.51;53.64
63009;BME280;49099;28.428;-16.488;2023-09-19T14:58:54;98712.50;;;26.76;52.34